Time;durP1;ratioP1;P1;durP2;ratioP2;P2;SDS_P1;SDS_P2;PMS_P1;PMS_P2;Temp;Humidity;BMP_temperature;BMP_pressure;BME280_temperature;BME280_humidity;BME280_pressure;Samples;Min_cycle;Max_cycle;Signal;HPM_P1;HPM_P2
2023/05/21 00:03:44;;;;;;;7.50;6.40;;;;;;;21.00;41.33;100541.43;105321;1302;67681;-89
2023/05/21 00:06:15;;;;;;;8.70;6.40;;;;;;;21.01;41.43;100543.83;105480;1302;68189;-89
2023/05/21 00:08:41;;;;;;;8.00;6.00;;;;;;;21.01;41.33;100538.04;105661;1302;72251;-89
2023/05/21 00:11:07;;;;;;;7.10;5.90;;;;;;;21.00;41.42;100534.36;105522;1305;68108;-88
2023/05/21 00:13:33;;;;;;;6.80;5.80;;;;;;;21.00;41.38;100529.96;105120;1299;67649;-89
2023/05/21 00:16:00;;;;;;;6.90;6.20;;;;;;;21.00;41.30;100528.58;105000;1305;67701;-88
2023/05/21 00:18:25;;;;;;;7.60;5.80;;;;;;;21.00;41.34;100528.27;105201;1305;67892;-88
2023/05/21 00:20:53;;;;;;;7.10;6.40;;;;;;;21.00;41.36;100529.41;105174;1306;67444;-89
2023/05/21 00:23:20;;;;;;;6.50;5.90;;;;;;;21.00;41.38;100531.09;105300;1305;67071;-88
2023/05/21 00:25:46;;;;;;;7.70;6.10;;;;;;;21.00;41.43;100530.54;105203;1301;67709;-89
2023/05/21 00:28:21;;;;;;;6.50;5.80;;;;;;;21.00;41.45;100528.54;105300;1305;67719;-89
2023/05/21 00:30:47;;;;;;;7.50;6.10;;;;;;;21.00;41.34;100531.35;104978;1308;83035;-88
2023/05/21 00:33:13;;;;;;;7.00;6.00;;;;;;;20.99;41.33;100529.40;105100;1305;67665;-89
2023/05/21 00:35:39;;;;;;;7.20;5.40;;;;;;;20.99;41.32;100528.33;105195;1304;67831;-88
2023/05/21 00:38:06;;;;;;;7.00;6.00;;;;;;;20.99;41.35;100527.30;104960;1306;67749;-88
2023/05/21 00:40:32;;;;;;;6.80;6.00;;;;;;;21.00;41.43;100524.70;105193;1299;67643;-89
2023/05/21 00:42:59;;;;;;;7.20;5.80;;;;;;;20.99;41.25;100522.90;105386;1305;68250;-89
2023/05/21 00:45:26;;;;;;;7.80;6.20;;;;;;;20.99;41.40;100518.97;104951;1306;67755;-88
2023/05/21 00:47:53;;;;;;;7.00;5.80;;;;;;;20.98;41.40;100516.80;105375;1302;68208;-88
2023/05/21 00:50:20;;;;;;;8.90;6.30;;;;;;;20.98;41.34;100510.83;105284;1302;67207;-88
2023/05/21 00:52:49;;;;;;;6.70;5.70;;;;;;;20.99;41.37;100513.18;105012;1305;73705;-88
2023/05/21 00:55:15;;;;;;;7.20;6.30;;;;;;;20.98;41.48;100511.04;105202;1299;83099;-88
2023/05/21 00:57:41;;;;;;;9.10;6.00;;;;;;;20.98;41.41;100508.01;104983;1305;67148;-88
2023/05/21 01:00:10;;;;;;;8.90;6.10;;;;;;;20.98;41.38;100506.42;105201;1304;67256;-89
2023/05/21 01:02:39;;;;;;;7.80;5.70;;;;;;;20.97;41.31;100508.22;105263;1304;67077;-88
2023/05/21 01:05:05;;;;;;;6.40;5.70;;;;;;;20.97;41.44;100504.64;105210;1305;73567;-88
2023/05/21 01:07:35;;;;;;;7.20;6.10;;;;;;;20.96;41.46;100497.02;105287;1305;67912;-88
2023/05/21 01:12:29;;;;;;;7.30;6.00;;;;;;;20.97;41.39;100496.05;105318;1304;67131;-90
2023/05/21 01:14:58;;;;;;;7.30;6.40;;;;;;;20.97;41.22;100494.52;105226;1305;67622;-89
2023/05/21 01:17:25;;;;;;;7.10;6.00;;;;;;;20.96;41.34;100496.45;105210;1301;74017;-89
2023/05/21 01:19:51;;;;;;;7.00;6.10;;;;;;;20.96;41.27;100492.77;105040;1308;67799;-88
2023/05/21 01:22:20;;;;;;;6.80;5.90;;;;;;;20.97;41.35;100491.70;105069;1302;67714;-88
2023/05/21 01:24:46;;;;;;;6.40;5.70;;;;;;;20.97;41.55;100490.42;105242;1305;67625;-89
2023/05/21 01:27:12;;;;;;;6.60;5.80;;;;;;;20.96;41.46;100487.86;104955;1304;68354;-89
2023/05/21 01:29:38;;;;;;;9.20;6.20;;;;;;;20.97;41.45;100486.73;105313;1305;67002;-90
2023/05/21 01:32:13;;;;;;;7.00;6.10;;;;;;;20.96;41.31;100490.36;104945;1305;67527;-89
2023/05/21 01:34:54;;;;;;;7.00;6.10;;;;;;;20.97;41.35;100490.16;105268;1302;72219;-89
2023/05/21 01:37:28;;;;;;;6.20;5.60;;;;;;;20.96;41.25;100491.18;104977;1299;67872;-89
2023/05/21 01:43:27;;;;;;;7.40;5.80;;;;;;;20.95;41.40;100483.20;105148;1307;73684;-89
2023/05/21 01:46:06;;;;;;;6.80;5.80;;;;;;;20.95;41.40;100480.60;105026;1307;83039;-89
2023/05/21 01:48:38;;;;;;;6.80;6.00;;;;;;;20.94;41.31;100482.95;105242;1305;72508;-89
2023/05/21 01:51:04;;;;;;;6.60;5.90;;;;;;;20.94;41.39;100485.05;104558;1305;554683;-89
2023/05/21 01:53:30;;;;;;;7.00;6.30;;;;;;;20.95;41.31;100480.60;105234;1305;67727;-89
2023/05/21 01:55:56;;;;;;;7.50;5.80;;;;;;;20.94;41.33;100480.13;105142;1305;67538;-89
2023/05/21 01:58:23;;;;;;;8.60;6.50;;;;;;;20.94;41.26;100477.48;105288;1299;67888;-89
2023/05/21 02:03:18;;;;;;;8.80;6.20;;;;;;;20.94;41.26;100471.91;105291;1304;67133;-89
2023/05/21 02:05:44;;;;;;;7.80;6.30;;;;;;;20.94;41.26;100467.87;104901;1308;67061;-89
2023/05/21 02:08:11;;;;;;;7.90;6.10;;;;;;;20.94;41.21;100470.78;105182;1308;67709;-89
2023/05/21 02:10:38;;;;;;;8.90;6.10;;;;;;;20.93;41.37;100465.36;105228;1305;81919;-89
2023/05/21 02:13:05;;;;;;;8.30;6.30;;;;;;;20.93;41.12;100467.71;105367;1299;72666;-88
2023/05/21 02:15:33;;;;;;;9.30;6.30;;;;;;;20.92;41.31;100463.06;105192;1305;67787;-89
2023/05/21 02:17:58;;;;;;;8.30;6.20;;;;;;;20.92;41.37;100465.62;105398;1302;67716;-89
2023/05/21 02:20:25;;;;;;;6.70;5.70;;;;;;;20.92;41.15;100463.06;105169;1305;67656;-89
2023/05/21 02:22:52;;;;;;;6.70;5.90;;;;;;;20.91;41.35;100458.36;104975;1305;67891;-88
2023/05/21 02:25:21;;;;;;;8.10;6.40;;;;;;;20.91;41.25;100457.44;105166;1302;67166;-89
2023/05/21 02:28:05;;;;;;;9.20;5.70;;;;;;;20.91;41.23;100454.77;105190;1299;67667;31
2023/05/21 02:30:32;;;;;;;7.30;6.30;;;;;;;20.89;41.26;100450.38;105087;1307;67577;-89
2023/05/21 02:32:59;;;;;;;7.40;5.70;;;;;;;20.89;41.28;100448.44;105241;1304;73563;-89
2023/05/21 02:35:26;;;;;;;7.00;6.00;;;;;;;20.89;41.26;100445.98;104958;1305;82586;-89
2023/05/21 02:37:52;;;;;;;7.80;5.80;;;;;;;20.89;41.29;100449.91;105341;1302;67719;-89
2023/05/21 02:40:17;;;;;;;8.30;5.90;;;;;;;20.88;41.29;100455.23;105169;1302;68087;-89
2023/05/21 02:45:53;;;;;;;7.90;6.30;;;;;;;20.88;41.37;100456.98;105212;1307;73713;-89
2023/05/21 02:48:22;;;;;;;7.60;6.00;;;;;;;20.87;41.47;100461.98;104884;1308;83067;-89
2023/05/21 02:50:56;;;;;;;7.10;5.90;;;;;;;20.87;41.33;100459.83;105150;1304;553053;-92
2023/05/21 02:53:22;;;;;;;8.70;6.30;;;;;;;20.86;41.42;100461.16;105313;1302;67880;-89
2023/05/21 02:55:47;;;;;;;10.00;6.30;;;;;;;20.86;41.41;100464.23;105136;1305;67798;-89
2023/05/21 02:58:13;;;;;;;6.10;5.20;;;;;;;20.86;41.25;100468.05;104998;1302;67100;-89
2023/05/21 03:00:49;;;;;;;7.90;5.90;;;;;;;20.86;41.42;100469.30;105226;1304;67217;-89
2023/05/21 03:03:18;;;;;;;9.40;5.80;;;;;;;20.86;41.40;100467.14;105281;1305;72689;-89
2023/05/21 03:05:44;;;;;;;8.20;5.70;;;;;;;20.85;41.58;100465.96;104760;1305;67839;-89
2023/05/21 03:08:10;;;;;;;8.80;5.70;;;;;;;20.86;41.44;100473.95;105161;1305;67826;-89
2023/05/21 03:10:36;;;;;;;6.60;5.90;;;;;;;20.86;41.38;100478.85;105352;1305;67152;-89
2023/05/21 03:13:03;;;;;;;7.40;6.10;;;;;;;20.86;41.49;100483.92;104926;1299;67703;-88
2023/05/21 03:18:46;;;;;;;7.80;5.80;;;;;;;20.86;41.44;100488.27;104970;1308;67795;-89
2023/05/21 03:21:14;;;;;;;7.50;5.30;;;;;;;20.85;41.61;100489.76;104955;1308;67088;-89
2023/05/21 03:23:41;;;;;;;6.20;5.30;;;;;;;20.86;41.58;100489.64;105129;1304;67033;-89
2023/05/21 03:26:07;;;;;;;9.30;6.10;;;;;;;20.86;41.43;100490.98;105031;1305;67065;-88
2023/05/21 03:28:34;;;;;;;8.50;6.00;;;;;;;20.87;41.51;100492.72;105157;1305;67269;-89
2023/05/21 03:31:01;;;;;;;9.10;6.00;;;;;;;20.87;41.37;100485.30;104933;1299;67884;-89
2023/05/21 03:35:58;;;;;;;7.70;5.70;;;;;;;20.86;41.45;100490.11;105320;1305;73192;-89
2023/05/21 03:38:24;;;;;;;7.50;5.50;;;;;;;20.86;41.51;100489.04;105178;1305;67743;-89
2023/05/21 03:40:53;;;;;;;8.30;5.80;;;;;;;20.86;41.68;100491.70;104950;1306;67672;-89
2023/05/21 03:43:19;;;;;;;7.40;5.70;;;;;;;20.87;41.55;100494.10;105114;1305;67905;-89
2023/05/21 03:45:45;;;;;;;7.20;5.60;;;;;;;20.86;41.64;100490.58;105004;1300;67124;-88
2023/05/21 03:48:11;;;;;;;7.00;5.90;;;;;;;20.85;41.51;100494.50;104983;1305;66957;-89
2023/05/21 03:50:36;;;;;;;7.50;5.80;;;;;;;20.86;41.38;100491.95;104845;1307;67822;-89
2023/05/21 03:53:03;;;;;;;6.90;5.70;;;;;;;20.86;41.65;100491.80;105099;1304;67691;-90
2023/05/21 03:55:29;;;;;;;7.30;5.40;;;;;;;20.86;41.51;100495.63;104851;1306;67981;-90
2023/05/21 03:57:54;;;;;;;9.10;5.60;;;;;;;20.86;41.55;100501.77;104995;1306;66986;-90
2023/05/21 04:00:20;;;;;;;7.30;6.00;;;;;;;20.86;41.62;100501.38;105284;1306;83836;-90
2023/05/21 04:02:46;;;;;;;7.20;5.40;;;;;;;20.86;41.68;100500.70;105153;1306;67123;-90
2023/05/21 04:05:11;;;;;;;7.50;5.80;;;;;;;20.85;41.66;100501.72;105243;1306;68013;-89
2023/05/21 04:07:45;;;;;;;7.20;5.60;;;;;;;20.86;41.73;100498.85;105108;1307;67219;-90
2023/05/21 04:10:11;;;;;;;8.90;5.50;;;;;;;20.85;41.72;100498.19;104928;1307;68103;-90
2023/05/21 04:12:37;;;;;;;6.10;5.30;;;;;;;20.86;41.73;100500.90;104921;1307;67760;-90
2023/05/21 04:15:04;;;;;;;8.30;5.50;;;;;;;20.86;41.79;100501.47;104873;1307;67723;-90
2023/05/21 04:17:32;;;;;;;7.20;5.90;;;;;;;20.85;41.70;100496.20;105149;1308;67492;-89
2023/05/21 04:19:57;;;;;;;7.90;5.50;;;;;;;20.85;41.82;100499.72;105163;1307;67608;-90
2023/05/21 04:22:25;;;;;;;9.40;5.70;;;;;;;20.85;41.75;100495.33;105208;1307;67616;-90
2023/05/21 04:24:52;;;;;;;9.10;5.40;;;;;;;20.85;41.80;100490.67;105219;1308;67845;-90
2023/05/21 04:27:22;;;;;;;8.70;6.00;;;;;;;20.85;41.81;100489.84;105019;1306;72439;-90
2023/05/21 04:29:49;;;;;;;9.10;6.00;;;;;;;20.85;41.90;100493.23;105137;1308;67970;-90
2023/05/21 04:32:16;;;;;;;6.40;5.50;;;;;;;20.84;41.99;100493.58;105213;1307;67599;-89
2023/05/21 04:34:42;;;;;;;7.30;5.60;;;;;;;20.84;41.91;100492.87;105104;1307;73513;-90
2023/05/21 04:37:08;;;;;;;6.80;5.70;;;;;;;20.85;41.93;100494.77;104951;1307;67615;-90
2023/05/21 04:39:35;;;;;;;7.40;5.60;;;;;;;20.85;41.95;100491.23;105079;1302;67685;-88
2023/05/21 04:42:02;;;;;;;6.00;5.20;;;;;;;20.85;42.02;100493.33;105038;1306;67737;-89
2023/05/21 04:44:29;;;;;;;6.40;5.70;;;;;;;20.85;41.86;100491.23;105204;1305;67323;-89
2023/05/21 04:46:56;;;;;;;7.40;5.90;;;;;;;20.85;41.96;100492.81;105229;1305;67096;-89
2023/05/21 04:49:22;;;;;;;8.90;5.40;;;;;;;20.85;41.96;100491.13;105116;1305;82976;-89
2023/05/21 04:51:57;;;;;;;7.90;5.60;;;;;;;20.85;42.02;100488.11;105034;1304;67673;-89
2023/05/21 04:54:30;;;;;;;7.30;5.80;;;;;;;20.85;42.00;100491.54;105338;1299;67077;-87
2023/05/21 04:56:56;;;;;;;6.20;5.60;;;;;;;20.85;42.02;100493.13;105241;1306;66963;-88
2023/05/21 04:59:22;;;;;;;8.40;5.30;;;;;;;20.85;42.08;100499.57;105281;1305;67367;-89
2023/05/21 05:01:49;;;;;;;8.30;5.30;;;;;;;20.85;42.03;100493.80;105237;1305;68209;-89
2023/05/21 05:04:15;;;;;;;7.70;5.70;;;;;;;20.85;42.08;100497.77;105340;1305;67253;-89
2023/05/21 05:06:42;;;;;;;6.20;5.60;;;;;;;20.86;42.12;100497.37;105404;1298;67075;-89
2023/05/21 05:09:24;;;;;;;6.80;5.90;;;;;;;20.86;42.22;100494.31;104831;1305;67650;-89
2023/05/21 05:11:50;;;;;;;9.70;5.20;;;;;;;20.85;41.99;100493.27;105314;1305;73895;-88
2023/05/21 05:14:16;;;;;;;6.30;5.20;;;;;;;20.85;42.29;100496.09;105411;1302;66997;-89
2023/05/21 05:16:42;;;;;;;7.50;5.40;;;;;;;20.86;42.24;100499.62;105383;1305;67640;-89
2023/05/21 05:19:11;;;;;;;8.80;5.80;;;;;;;20.86;42.23;100502.48;104821;1305;70919;-89
2023/05/21 05:21:39;;;;;;;8.50;5.20;;;;;;;20.87;42.28;100501.58;105240;1301;67292;-89
2023/05/21 05:26:34;;;;;;;6.20;5.60;;;;;;;20.87;42.33;100494.70;105318;1305;82901;-89
2023/05/21 05:29:00;;;;;;;7.70;5.20;;;;;;;20.87;42.21;100489.70;105132;1305;67298;-89
2023/05/21 05:31:26;;;;;;;6.60;5.80;;;;;;;20.88;42.34;100489.60;104853;1305;67668;-89
2023/05/21 05:33:52;;;;;;;7.90;6.00;;;;;;;20.88;42.24;100487.40;105135;1304;67793;-89
2023/05/21 05:36:18;;;;;;;7.40;5.60;;;;;;;20.89;42.33;100491.96;105386;1299;66949;-88
2023/05/21 05:38:44;;;;;;;6.20;5.20;;;;;;;20.87;42.35;100484.39;105304;1306;67209;-89
2023/05/21 05:41:10;;;;;;;8.20;5.20;;;;;;;20.90;42.29;100488.43;105389;1302;68084;-89
2023/05/21 05:43:36;;;;;;;6.00;5.20;;;;;;;20.90;42.26;100485.36;105344;1305;67581;-89
2023/05/21 05:46:08;;;;;;;7.60;5.50;;;;;;;20.90;42.31;100485.81;105040;1304;73278;-89
2023/05/21 05:48:35;;;;;;;7.30;5.50;;;;;;;20.91;42.33;100492.05;105370;1299;82872;-88
2023/05/21 05:53:28;;;;;;;6.30;5.10;;;;;;;20.92;42.24;100486.98;105390;1304;67868;-89
2023/05/21 05:55:54;;;;;;;5.90;5.20;;;;;;;20.92;42.28;100486.89;105180;1301;67691;-89
2023/05/21 05:58:20;;;;;;;6.30;5.50;;;;;;;20.93;42.31;100487.97;104914;1308;67215;-89
2023/05/21 06:00:51;;;;;;;7.20;5.50;;;;;;;20.94;42.42;100486.39;104952;1305;83112;-89
2023/05/21 06:03:22;;;;;;;8.60;5.30;;;;;;;20.94;42.24;100490.13;104933;1299;72751;-89
2023/05/21 06:05:48;;;;;;;8.70;5.50;;;;;;;20.95;42.28;100485.51;105148;1305;67563;-88
2023/05/21 06:08:17;;;;;;;7.30;5.10;;;;;;;20.95;42.13;100491.70;105210;1302;68038;-90
2023/05/21 06:10:44;;;;;;;6.90;5.60;;;;;;;20.95;42.25;100484.73;105326;1305;73553;-89
2023/05/21 06:13:10;;;;;;;8.90;5.50;;;;;;;20.96;42.41;100484.58;105228;1305;82997;-89
2023/05/21 06:15:36;;;;;;;8.00;5.00;;;;;;;20.97;42.32;100483.56;104980;1306;67856;-89
2023/05/21 06:18:05;;;;;;;5.70;5.10;;;;;;;20.97;42.32;100486.84;105110;1300;67014;31
2023/05/21 06:20:31;;;;;;;7.20;5.80;;;;;;;20.98;42.31;100481.31;105240;1305;67794;-89
2023/05/21 06:22:57;;;;;;;6.70;5.10;;;;;;;20.98;42.28;100483.87;104977;1306;67826;-89
2023/05/21 06:25:24;;;;;;;8.50;5.30;;;;;;;20.99;42.35;100475.43;104988;1305;67566;-89
2023/05/21 06:27:53;;;;;;;7.30;5.00;;;;;;;21.00;42.37;100478.62;105153;1301;67619;-89
2023/05/21 06:30:19;;;;;;;7.50;5.30;;;;;;;21.00;42.40;100476.15;105221;1299;67578;-89
2023/05/21 06:32:45;;;;;;;8.50;5.70;;;;;;;21.02;42.37;100470.52;105191;1305;67023;-88
2023/05/21 06:36:28;;;;;;;6.90;5.60;;;;;;;21.02;42.38;100470.62;104979;1308;73149;-89
2023/05/21 06:39:02;;;;;;;5.80;5.20;;;;;;;21.02;42.35;100463.41;104971;1308;83145;-90
2023/05/21 06:41:27;;;;;;;6.30;4.90;;;;;;;21.03;42.39;100462.40;104993;1308;73405;-88
2023/05/21 06:43:54;;;;;;;5.80;5.20;;;;;;;21.04;42.42;100461.06;105000;1305;67788;-89
2023/05/21 06:46:20;;;;;;;6.80;5.50;;;;;;;21.05;42.15;100459.46;105291;1305;67026;-89
2023/05/21 06:48:46;;;;;;;9.20;5.10;;;;;;;21.05;42.37;100456.30;105364;1302;67928;-89
2023/05/21 06:51:12;;;;;;;6.70;5.10;;;;;;;21.06;42.29;100452.67;105023;1299;67910;-88
2023/05/21 06:53:38;;;;;;;7.90;5.20;;;;;;;21.07;42.48;100451.04;105209;1305;67519;-89
2023/05/21 06:56:04;;;;;;;6.50;5.10;;;;;;;21.07;42.33;100449.81;105421;1302;67702;-89
2023/05/21 06:58:32;;;;;;;6.10;5.40;;;;;;;21.08;42.29;100452.87;105097;1305;67811;-89
2023/05/21 07:00:59;;;;;;;6.00;5.40;;;;;;;21.09;42.31;100452.10;105300;1302;67925;-89
2023/05/21 07:03:28;;;;;;;5.50;5.00;;;;;;;21.09;42.34;100458.80;105202;1305;67843;-89
2023/05/21 07:05:58;;;;;;;6.90;5.00;;;;;;;21.10;42.25;100451.02;105392;1299;72299;31
2023/05/21 07:08:24;;;;;;;6.70;5.90;;;;;;;21.11;42.14;100454.05;104940;1309;67896;-90
2023/05/21 07:10:51;;;;;;;7.20;5.80;;;;;;;21.11;42.24;100450.22;105096;1305;67596;-89
2023/05/21 07:13:16;;;;;;;6.70;5.70;;;;;;;21.11;42.20;100446.53;105349;1301;67517;-89
2023/05/21 07:15:42;;;;;;;9.80;6.00;;;;;;;21.13;42.14;100444.32;104946;1305;67753;-89
2023/05/21 07:18:08;;;;;;;7.50;5.90;;;;;;;21.14;42.13;100438.30;104992;1298;66977;-88
2023/05/21 07:23:23;;;;;;;7.20;6.10;;;;;;;21.15;42.20;100427.49;105340;1303;68108;-88
2023/05/21 07:25:51;;;;;;;7.10;6.00;;;;;;;21.16;42.17;100426.01;105285;1302;73560;-90
2023/05/21 07:28:29;;;;;;;;;;;;;;;;;;;;;
2023/05/21 07:30:52;;;;;;;7.90;6.40;;;;;;;21.18;42.15;100425.28;105324;1302;71348;-90
2023/05/21 07:33:35;;;;;;;7.70;6.40;;;;;;;21.19;42.02;100424.67;105200;1305;68034;-90
2023/05/21 07:36:07;;;;;;;6.50;5.90;;;;;;;21.20;41.95;100431.06;104864;1299;67754;-89
2023/05/21 07:42:12;;;;;;;6.80;6.10;;;;;;;21.21;42.03;100422.20;105200;1308;83093;-90
2023/05/21 07:47:14;;;;;;;6.90;5.90;;;;;;;21.22;42.08;100424.41;105306;1308;67678;-89
2023/05/21 07:49:40;;;;;;;6.50;5.60;;;;;;;21.22;41.99;100416.02;105117;1302;67205;-90
2023/05/21 07:52:11;;;;;;;6.80;5.80;;;;;;;21.23;41.93;100418.52;105470;1306;67094;-89
2023/05/21 07:54:39;;;;;;;9.60;5.80;;;;;;;21.23;42.03;100417.04;105557;1302;83324;-90
2023/05/21 07:57:20;;;;;;;8.60;5.60;;;;;;;21.24;41.90;100417.40;105223;1305;72523;-90
2023/05/21 07:59:52;;;;;;;10.60;5.90;;;;;;;21.25;41.95;100421.08;105009;1300;67202;-87
2023/05/21 08:02:18;;;;;;;7.30;6.10;;;;;;;21.25;41.92;100415.80;105043;1305;67788;-89
2023/05/21 08:04:45;;;;;;;7.30;5.80;;;;;;;21.26;41.89;100417.55;105197;1305;67716;-89
2023/05/21 08:07:11;;;;;;;7.40;6.10;;;;;;;21.27;42.04;100416.77;104931;1305;68081;-90
2023/05/21 08:09:39;;;;;;;8.80;6.00;;;;;;;21.28;41.84;100413.96;105150;1305;67084;-89
2023/05/21 08:12:05;;;;;;;6.60;5.80;;;;;;;21.29;41.84;100415.86;104995;1305;67665;-89
2023/05/21 08:14:47;;;;;;;9.30;5.70;;;;;;;21.29;41.75;100418.42;104973;1305;67004;-89
2023/05/21 08:17:13;;;;;;;7.30;6.00;;;;;;;21.30;41.88;100416.46;105018;1308;73532;-89
2023/05/21 08:19:39;;;;;;;7.10;6.00;;;;;;;21.30;41.81;100419.68;105004;1301;68202;-89
2023/05/21 08:22:05;;;;;;;7.80;6.10;;;;;;;21.31;41.87;100416.41;104987;1306;67717;-89
2023/05/21 08:24:35;;;;;;;6.40;5.70;;;;;;;21.32;41.87;100418.61;105252;1305;67132;-89
2023/05/21 08:27:03;;;;;;;8.70;6.00;;;;;;;21.32;41.91;100420.60;105359;1306;67108;-89
2023/05/21 08:29:31;;;;;;;7.50;5.90;;;;;;;21.33;41.84;100424.54;105392;1306;73651;-88
2023/05/21 08:31:57;;;;;;;6.60;5.90;;;;;;;21.34;41.93;100430.66;105084;1306;82990;-89
2023/05/21 08:34:23;;;;;;;7.40;5.40;;;;;;;21.33;41.80;100426.58;105320;1305;67924;-88
2023/05/21 08:36:49;;;;;;;6.90;5.70;;;;;;;21.35;41.76;100424.02;105077;1306;67567;-89
2023/05/21 08:39:14;;;;;;;6.80;5.50;;;;;;;21.35;41.82;100425.20;105359;1306;66955;-89
2023/05/21 08:41:41;;;;;;;7.60;6.50;;;;;;;21.36;41.81;100421.46;105330;1305;67368;-89
2023/05/21 08:44:11;;;;;;;7.50;6.20;;;;;;;21.36;41.73;100422.39;105355;1306;67814;-88
2023/05/21 08:46:38;;;;;;;7.80;5.80;;;;;;;21.37;41.77;100429.75;105397;1305;67646;-88
2023/05/21 08:49:06;;;;;;;6.70;6.00;;;;;;;21.37;41.90;100423.46;105039;1306;67258;-89
2023/05/21 08:51:32;;;;;;;7.50;5.50;;;;;;;21.37;41.81;100417.98;105044;1306;67365;-89
2023/05/21 08:53:58;;;;;;;7.10;6.00;;;;;;;21.38;41.84;100419.71;105451;1306;67047;-89
2023/05/21 08:56:33;;;;;;;6.20;5.50;;;;;;;21.39;41.95;100421.14;105319;1307;81615;-89
2023/05/21 08:58:59;;;;;;;6.20;5.50;;;;;;;21.39;41.94;100414.70;104836;1307;66959;-89
2023/05/21 09:01:25;;;;;;;6.40;5.50;;;;;;;21.39;41.81;100427.14;105269;1307;67709;-88
2023/05/21 09:03:52;;;;;;;7.80;5.70;;;;;;;21.40;41.76;100426.63;105267;1306;67930;-89
2023/05/21 09:06:19;;;;;;;7.00;5.60;;;;;;;21.40;41.80;100425.70;105026;1305;73621;-89
2023/05/21 09:08:47;;;;;;;8.00;6.10;;;;;;;21.40;41.88;100426.12;104989;1302;67108;-89
2023/05/21 09:13:53;;;;;;;6.50;5.70;;;;;;;21.42;41.75;100423.34;105167;1307;67905;-89
2023/05/21 09:16:21;;;;;;;7.50;6.00;;;;;;;21.42;41.83;100428.71;104892;1306;67890;-89
2023/05/21 09:18:48;;;;;;;9.60;6.10;;;;;;;21.42;41.85;100430.61;105021;1305;73621;-89
2023/05/21 09:21:27;;;;;;;6.80;6.10;;;;;;;21.43;41.72;100423.19;104988;1305;83123;-89
2023/05/21 09:23:59;;;;;;;6.60;5.70;;;;;;;21.43;41.77;100420.42;105008;1306;72747;-89
2023/05/21 09:26:46;;;;;;;11.10;5.90;;;;;;;21.43;41.95;100431.58;105187;1299;67672;31
2023/05/21 09:34:55;;;;;;;6.60;5.80;;;;;;;21.44;41.77;100423.23;104967;1308;83852;-89
2023/05/21 09:37:23;;;;;;;8.90;5.80;;;;;;;21.44;41.78;100418.32;105333;1302;67778;-88
2023/05/21 09:39:48;;;;;;;9.10;6.30;;;;;;;21.44;41.84;100415.19;105225;1306;67170;-88
2023/05/21 09:42:15;;;;;;;10.40;6.30;;;;;;;21.46;41.68;100423.02;104811;1305;67947;-89
2023/05/21 09:44:44;;;;;;;12.40;6.50;;;;;;;21.46;41.72;100425.02;105308;1305;67277;-89
2023/05/21 09:49:51;;;;;;;6.90;6.10;;;;;;;21.47;41.75;100416.52;105123;1307;72414;-89
2023/05/21 09:52:27;;;;;;;7.60;6.10;;;;;;;21.47;41.76;100427.11;104932;1308;68110;-89
2023/05/21 09:54:55;;;;;;;8.00;6.20;;;;;;;21.47;41.73;100425.83;105353;1298;67671;-90
2023/05/21 09:57:29;;;;;;;8.70;5.90;;;;;;;21.48;41.72;100425.79;105073;1301;73888;-90
2023/05/21 09:59:55;;;;;;;9.80;6.40;;;;;;;21.48;41.72;100428.44;104987;1304;67781;-89
2023/05/21 10:02:30;;;;;;;7.10;6.00;;;;;;;21.48;41.71;100423.02;105162;1299;67477;-89
2023/05/21 10:04:57;;;;;;;11.10;6.50;;;;;;;21.49;41.67;100419.02;105324;1305;67647;-89
2023/05/21 10:07:27;;;;;;;7.40;5.80;;;;;;;21.49;41.59;100410.07;104859;1308;67775;-89
2023/05/21 10:09:56;;;;;;;11.60;6.10;;;;;;;21.50;41.75;100413.64;104958;1305;74606;-89
2023/05/21 10:12:26;;;;;;;10.30;6.10;;;;;;;21.51;41.63;100409.50;105285;1306;83993;-89
2023/05/21 10:15:05;;;;;;;8.50;6.30;;;;;;;21.52;41.64;100409.59;104989;1306;71818;-89
2023/05/21 10:17:34;;;;;;;8.10;5.70;;;;;;;21.52;41.52;100416.66;105216;1305;67807;-88
2023/05/21 10:22:31;;;;;;;10.40;5.80;;;;;;;21.53;41.63;100419.06;105358;1304;74222;-89
2023/05/21 10:25:02;;;;;;;7.70;5.90;;;;;;;21.54;41.58;100417.48;105207;1301;82921;-89
2023/05/21 10:27:30;;;;;;;7.40;6.10;;;;;;;21.54;41.44;100419.77;105222;1304;72496;-89
2023/05/21 10:30:06;;;;;;;7.00;5.50;;;;;;;21.54;41.49;100415.27;105209;1305;67855;-89
2023/05/21 10:32:32;;;;;;;7.80;5.20;;;;;;;21.55;41.46;100418.91;105272;1304;67273;-88
2023/05/21 10:37:27;;;;;;;6.40;5.50;;;;;;;21.55;41.38;100424.58;105345;1305;82536;-89
2023/05/21 10:39:54;;;;;;;8.90;5.80;;;;;;;21.56;41.43;100425.09;105207;1305;73592;-89
2023/05/21 10:42:38;;;;;;;7.30;5.40;;;;;;;21.57;41.30;100425.55;105203;1304;67791;-89
2023/05/21 10:45:34;;;;;;;10.00;5.80;;;;;;;21.57;41.21;100422.48;105162;1304;67854;-89
2023/05/21 10:51:13;;;;;;;7.80;5.50;;;;;;;21.57;41.30;100427.14;104433;1302;81390;-89
2023/05/21 10:54:13;;;;;;;6.30;5.60;;;;;;;21.57;41.28;100418.68;105049;1302;72542;-89
2023/05/21 10:56:59;;;;;;;9.30;6.10;;;;;;;21.57;41.27;100422.38;105311;1305;67515;-89
2023/05/21 10:59:47;;;;;;;7.00;5.50;;;;;;;21.57;41.25;100415.16;105028;1302;67018;-89
2023/05/21 11:02:18;;;;;;;7.90;5.60;;;;;;;21.57;41.19;100412.80;104884;1299;74863;-89
2023/05/21 11:11:02;;;;;;;10.00;6.00;;;;;;;21.58;41.12;100416.84;105089;1308;67064;-89
2023/05/21 11:16:06;;;;;;;8.50;5.60;;;;;;;21.58;41.08;100410.13;105335;1302;73236;-89
2023/05/21 11:18:47;;;;;;;11.20;5.60;;;;;;;21.58;40.95;100415.09;105329;1299;83103;-90
2023/05/21 11:21:27;;;;;;;9.10;6.00;;;;;;;21.59;40.98;100414.13;105143;1299;72447;-90
2023/05/21 11:24:03;;;;;;;8.30;5.90;;;;;;;21.60;40.95;100420.38;105144;1305;67184;-89
2023/05/21 11:29:31;;;;;;;8.30;5.80;;;;;;;21.60;40.97;100411.05;105337;1302;74004;-88
2023/05/21 11:32:05;;;;;;;8.20;5.80;;;;;;;21.60;40.91;100420.78;105254;1300;82929;-88
2023/05/21 11:37:29;;;;;;;7.60;5.60;;;;;;;21.60;40.83;100409.58;103889;1308;67767;-89
2023/05/21 11:42:41;;;;;;;6.00;5.30;;;;;;;21.61;40.89;100399.85;105458;1300;73427;-89
2023/05/21 11:45:09;;;;;;;7.50;5.40;;;;;;;21.61;40.88;100402.38;105271;1304;83494;-90
2023/05/21 11:47:36;;;;;;;9.40;5.40;;;;;;;21.62;40.81;100402.79;105107;1302;73421;-89
2023/05/21 11:50:03;;;;;;;10.30;5.40;;;;;;;21.63;40.79;100403.70;105324;1296;67009;-88
2023/05/21 11:52:29;;;;;;;7.30;5.20;;;;;;;21.63;40.75;100399.14;105169;1302;319119;-89
2023/05/21 11:54:57;;;;;;;9.30;5.40;;;;;;;21.65;40.73;100390.69;105523;1298;74523;-89
2023/05/21 11:57:29;;;;;;;7.50;5.40;;;;;;;21.66;40.64;100390.08;105314;1302;67841;-89
2023/05/21 12:00:00;;;;;;;8.90;5.30;;;;;;;21.66;40.74;100386.48;105272;1298;72415;-89
2023/05/21 12:02:29;;;;;;;9.50;5.70;;;;;;;21.66;40.66;100384.39;105396;1302;68653;-89
2023/05/21 12:05:00;;;;;;;9.70;5.90;;;;;;;21.66;40.71;100380.29;105463;1302;67774;-88
2023/05/21 12:07:27;;;;;;;8.30;5.30;;;;;;;21.66;40.57;100383.21;105290;1302;74572;-89
2023/05/21 12:09:53;;;;;;;8.80;5.30;;;;;;;21.67;40.56;100374.45;105300;1302;83035;-90
2023/05/21 12:12:20;;;;;;;8.30;5.40;;;;;;;21.68;40.53;100375.36;105454;1298;67903;-89
2023/05/21 12:14:49;;;;;;;7.50;5.50;;;;;;;21.67;40.56;100381.81;105439;1301;67929;-89
2023/05/21 12:17:17;;;;;;;6.90;5.20;;;;;;;21.67;40.52;100374.64;105437;1305;67737;-89
2023/05/21 12:19:53;;;;;;;7.10;5.20;;;;;;;21.68;40.50;100384.72;105505;1296;74311;31
2023/05/21 12:22:19;;;;;;;7.60;4.80;;;;;;;21.69;40.54;100368.23;105480;1302;83049;-89
2023/05/21 12:24:47;;;;;;;5.90;4.80;;;;;;;21.70;40.38;100372.54;105464;1301;67097;-89
2023/05/21 12:27:17;;;;;;;7.10;5.20;;;;;;;21.70;40.53;100367.51;105434;1301;67310;-89
2023/05/21 12:29:43;;;;;;;6.00;5.10;;;;;;;21.71;40.28;100358.39;105467;1301;67078;-89
2023/05/21 12:32:12;;;;;;;8.30;5.50;;;;;;;21.71;40.51;100370.27;105466;1299;67682;-89
2023/05/21 12:43:44;;;;;;;5.70;5.10;;;;;;;21.70;40.39;100360.91;105388;1304;67582;-89
2023/05/21 12:46:16;;;;;;;7.00;5.40;;;;;;;21.70;40.49;100351.89;105384;1305;75511;-89